createdAt,value
2024-02-19T00:00:54.874Z,67.84
2024-02-19T00:01:55.070Z,67.30
2024-02-19T00:02:54.960Z,67.17
2024-02-19T00:03:55.021Z,67.34
2024-02-19T00:04:55.053Z,67.47
2024-02-19T00:05:55.097Z,67.70
2024-02-19T00:06:55.152Z,67.06
2024-02-19T00:07:55.313Z,67.85
2024-02-19T00:08:55.220Z,68.26
2024-02-19T00:09:55.232Z,68.45
2024-02-19T00:10:55.222Z,67.88
2024-02-19T00:11:55.255Z,67.85
2024-02-19T00:12:55.446Z,67.36
2024-02-19T00:13:55.357Z,67.47
2024-02-19T00:14:55.422Z,65.97
2024-02-19T00:15:55.476Z,65.62
2024-02-19T00:16:55.460Z,65.47
2024-02-19T00:17:55.579Z,65.15
2024-02-19T00:18:55.814Z,64.15
2024-02-19T00:19:55.666Z,65.05
2024-02-19T00:20:55.689Z,66.14
2024-02-19T00:21:55.745Z,67.80
2024-02-19T00:22:55.825Z,67.50
2024-02-19T00:23:55.831Z,68.28
2024-02-19T00:24:55.867Z,68.96
2024-02-19T00:25:55.903Z,69.56
2024-02-19T00:26:55.963Z,70.09
2024-02-19T00:27:56.043Z,70.68
2024-02-19T00:28:55.968Z,71.53
2024-02-19T00:29:55.941Z,70.86
2024-02-19T00:30:56.097Z,71.30
2024-02-19T00:31:56.144Z,71.36
2024-02-19T00:32:56.280Z,72.06
2024-02-19T00:33:56.444Z,71.91
2024-02-19T00:34:56.302Z,70.61
2024-02-19T00:35:56.304Z,70.05
2024-02-19T00:36:56.416Z,69.85
2024-02-19T00:37:56.425Z,69.94
2024-02-19T00:38:56.442Z,69.79
2024-02-19T00:39:57.013Z,69.93
2024-02-19T00:40:56.524Z,70.17
2024-02-19T00:41:56.549Z,69.77
2024-02-19T00:42:56.714Z,69.81
2024-02-19T00:43:56.656Z,70.00
2024-02-19T00:44:56.662Z,69.10
2024-02-19T00:45:56.877Z,69.65
2024-02-19T00:46:56.796Z,69.65
2024-02-19T00:47:56.824Z,67.83
2024-02-19T00:48:56.834Z,67.92
2024-02-19T00:49:57.005Z,68.10
2024-02-19T00:50:56.893Z,69.02
2024-02-19T00:51:56.966Z,69.31
2024-02-19T00:52:57.010Z,71.52
2024-02-19T00:53:57.065Z,71.29
2024-02-19T00:54:57.183Z,71.63
2024-02-19T00:55:57.141Z,70.46
2024-02-19T00:56:57.251Z,71.47
2024-02-19T00:57:57.317Z,71.35
2024-02-19T00:58:57.299Z,71.28
2024-02-19T00:59:57.348Z,71.42
2024-02-19T01:00:57.454Z,71.14
2024-02-19T01:01:57.650Z,70.66
2024-02-19T01:02:57.513Z,69.99
2024-02-19T01:03:57.568Z,69.55
2024-02-19T01:04:57.649Z,69.27
2024-02-19T01:05:57.633Z,68.91
2024-02-19T01:06:57.735Z,68.70
2024-02-19T01:07:58.087Z,68.33
2024-02-19T01:08:57.640Z,68.56
2024-02-19T01:09:57.784Z,69.47
2024-02-19T01:10:57.781Z,69.53
2024-02-19T01:11:57.865Z,68.75
2024-02-19T01:12:57.914Z,68.59
2024-02-19T01:13:57.875Z,68.47
2024-02-19T01:14:57.980Z,68.55
2024-02-19T01:15:57.979Z,68.31
2024-02-19T01:16:58.038Z,68.31
2024-02-19T01:17:58.100Z,68.01
2024-02-19T01:18:58.264Z,67.98
2024-02-19T01:19:58.263Z,67.89
2024-02-19T01:20:58.218Z,67.97
2024-02-19T01:21:58.318Z,67.94
2024-02-19T01:22:58.332Z,67.80
2024-02-19T01:23:58.252Z,68.03
2024-02-19T01:24:58.351Z,67.72
2024-02-19T01:25:58.394Z,67.72
2024-02-19T01:26:58.408Z,68.09
2024-02-19T01:27:58.487Z,68.97
2024-02-19T01:28:58.472Z,69.34
2024-02-19T01:29:58.512Z,68.84
2024-02-19T01:30:58.623Z,68.84
2024-02-19T01:31:58.641Z,69.19
2024-02-19T01:32:58.736Z,68.80
2024-02-19T01:33:58.788Z,68.35
2024-02-19T01:34:59.010Z,68.06
2024-02-19T01:35:58.871Z,68.11
2024-02-19T01:36:59.029Z,67.96
2024-02-19T01:37:58.945Z,67.56
2024-02-19T01:38:58.948Z,68.32
2024-02-19T01:39:59.004Z,69.08
2024-02-19T01:40:59.105Z,70.02
2024-02-19T01:41:59.282Z,69.47
2024-02-19T01:42:59.254Z,69.79
2024-02-19T01:43:59.219Z,69.42
2024-02-19T01:44:59.286Z,70.12
2024-02-19T01:45:59.253Z,69.82
2024-02-19T01:46:59.290Z,69.66
2024-02-19T01:47:59.539Z,70.09
2024-02-19T01:48:59.382Z,70.79
2024-02-19T01:49:59.469Z,70.58
2024-02-19T01:50:59.501Z,70.37
2024-02-19T01:51:59.584Z,69.94
2024-02-19T01:52:59.554Z,69.69
2024-02-19T01:53:59.583Z,69.71
2024-02-19T01:54:59.712Z,70.18
2024-02-19T01:55:59.711Z,69.88
2024-02-19T01:56:59.699Z,70.23
2024-02-19T01:57:59.862Z,70.84
2024-02-19T01:58:59.842Z,69.84
2024-02-19T01:59:59.842Z,69.46
2024-02-19T02:01:00.084Z,69.32
2024-02-19T02:01:59.995Z,69.65
2024-02-19T02:03:00.103Z,69.55
2024-02-19T02:04:00.126Z,69.23
2024-02-19T02:05:00.059Z,68.99
2024-02-19T02:06:00.133Z,68.48
2024-02-19T02:07:00.270Z,68.10
2024-02-19T02:08:00.875Z,67.78
2024-02-19T02:09:00.206Z,67.11
2024-02-19T02:10:00.329Z,68.32
2024-02-19T02:11:00.415Z,70.31
2024-02-19T02:12:00.309Z,71.38
2024-02-19T02:13:00.475Z,70.74
2024-02-19T02:14:00.430Z,70.09
2024-02-19T02:15:00.455Z,69.94
2024-02-19T02:16:00.507Z,69.96
2024-02-19T02:17:00.545Z,70.97
2024-02-19T02:18:00.629Z,70.62
2024-02-19T02:19:00.778Z,70.51
2024-02-19T02:20:00.852Z,70.02
2024-02-19T02:21:00.710Z,69.74
2024-02-19T02:22:00.743Z,69.54
2024-02-19T02:23:00.694Z,69.71
2024-02-19T02:24:00.805Z,69.05
2024-02-19T02:25:00.833Z,69.01
2024-02-19T02:26:00.817Z,69.43
2024-02-19T02:27:00.849Z,68.77
2024-02-19T02:28:00.998Z,68.89
2024-02-19T02:29:00.952Z,68.89
2024-02-19T02:30:00.968Z,68.63
2024-02-19T02:31:01.096Z,68.62
2024-02-19T02:32:01.069Z,68.42
2024-02-19T02:33:01.221Z,69.08
2024-02-19T02:34:01.445Z,69.64
2024-02-19T02:35:01.148Z,69.82
2024-02-19T02:36:01.160Z,69.64
2024-02-19T02:37:01.245Z,69.17
2024-02-19T02:38:01.403Z,68.60
2024-02-19T02:39:01.344Z,69.33
2024-02-19T02:40:01.293Z,69.82
2024-02-19T02:41:01.336Z,69.31
2024-02-19T02:42:01.308Z,69.30
2024-02-19T02:43:01.373Z,70.70
2024-02-19T02:44:01.354Z,69.40
2024-02-19T02:45:01.364Z,69.63
2024-02-19T02:46:01.486Z,69.40
2024-02-19T02:47:01.475Z,69.17
2024-02-19T02:48:01.653Z,68.54
2024-02-19T02:49:01.808Z,67.75
2024-02-19T02:50:01.666Z,68.32
2024-02-19T02:51:01.695Z,71.11
2024-02-19T02:52:01.748Z,72.18
2024-02-19T02:53:01.779Z,71.93
2024-02-19T02:54:01.763Z,72.08
2024-02-19T02:55:01.846Z,71.94
2024-02-19T02:56:01.846Z,71.41
2024-02-19T02:57:01.914Z,71.10
2024-02-19T02:58:01.988Z,70.55
2024-02-19T02:59:02.023Z,70.18
2024-02-19T03:00:02.050Z,69.87
2024-02-19T03:01:02.163Z,69.51
2024-02-19T03:02:02.199Z,68.79
2024-02-19T03:03:02.186Z,68.27
2024-02-19T03:04:02.263Z,68.49
2024-02-19T03:05:02.270Z,68.20
2024-02-19T03:06:02.324Z,68.01
2024-02-19T03:07:02.439Z,67.75
2024-02-19T03:08:02.395Z,68.04
2024-02-19T03:09:02.453Z,67.97
2024-02-19T03:10:02.531Z,67.77
2024-02-19T03:11:02.598Z,67.59
2024-02-19T03:12:02.545Z,66.75
2024-02-19T03:13:02.615Z,66.31
2024-02-19T03:14:02.668Z,66.18
2024-02-19T03:15:02.674Z,65.84
2024-02-19T03:16:02.818Z,66.37
2024-02-19T03:17:02.621Z,65.56
2024-02-19T03:18:02.768Z,65.48
2024-02-19T03:19:02.767Z,66.26
2024-02-19T03:20:02.748Z,66.37
2024-02-19T03:21:02.827Z,66.39
2024-02-19T03:22:02.869Z,66.55
2024-02-19T03:23:02.970Z,66.62
2024-02-19T03:24:02.984Z,67.92
2024-02-19T03:25:03.158Z,70.23
2024-02-19T03:26:03.114Z,70.57
2024-02-19T03:27:03.080Z,70.90
2024-02-19T03:28:03.152Z,70.53
2024-02-19T03:29:03.150Z,70.35
2024-02-19T03:30:03.250Z,69.70
2024-02-19T03:31:03.332Z,70.34
2024-02-19T03:32:03.314Z,70.77
2024-02-19T03:33:03.502Z,71.03
2024-02-19T03:34:03.539Z,71.78
2024-02-19T03:35:03.454Z,71.31
2024-02-19T03:36:03.426Z,71.89
2024-02-19T03:37:03.480Z,71.95
2024-02-19T03:38:03.533Z,71.19
2024-02-19T03:39:03.696Z,70.60
2024-02-19T03:40:03.695Z,70.23
2024-02-19T03:41:03.689Z,69.84
2024-02-19T03:42:03.747Z,69.49
2024-02-19T03:43:03.879Z,69.45
2024-02-19T03:44:03.843Z,69.81
2024-02-19T03:45:04.755Z,69.79
2024-02-19T03:46:04.008Z,70.85
2024-02-19T03:47:03.989Z,70.21
2024-02-19T03:48:04.043Z,69.49
2024-02-19T03:49:04.217Z,69.66
2024-02-19T03:50:04.083Z,69.38
2024-02-19T03:51:04.094Z,68.68
2024-02-19T03:52:04.252Z,68.89
2024-02-19T03:53:04.214Z,69.43
2024-02-19T03:54:04.368Z,70.39
2024-02-19T03:55:04.316Z,71.30
2024-02-19T03:56:04.377Z,72.98
2024-02-19T03:57:04.414Z,74.30
2024-02-19T03:58:04.460Z,75.48
2024-02-19T03:59:04.482Z,76.52
2024-02-19T04:00:04.458Z,76.70
2024-02-19T04:01:08.217Z,76.46
2024-02-19T04:02:04.527Z,76.22
2024-02-19T04:03:04.524Z,75.76
2024-02-19T04:04:04.607Z,75.08
2024-02-19T04:05:04.567Z,74.46
2024-02-19T04:06:04.542Z,73.84
2024-02-19T04:07:04.647Z,73.61
2024-02-19T04:08:06.557Z,73.40
2024-02-19T04:09:04.532Z,72.88
2024-02-19T04:10:04.581Z,73.69
2024-02-19T04:11:04.553Z,73.58
2024-02-19T04:12:04.538Z,73.30
2024-02-19T04:13:04.581Z,72.73
2024-02-19T04:14:04.588Z,72.91
2024-02-19T04:15:04.570Z,72.73
2024-02-19T04:16:04.609Z,72.05
2024-02-19T04:17:06.948Z,72.96
2024-02-19T04:18:04.703Z,73.85
2024-02-19T04:19:04.684Z,73.24
2024-02-19T04:20:04.582Z,73.12
2024-02-19T04:21:04.548Z,73.66
2024-02-19T04:22:04.757Z,74.19
2024-02-19T04:23:04.609Z,75.07
2024-02-19T04:24:04.558Z,74.12
2024-02-19T04:25:04.610Z,74.21
2024-02-19T04:26:04.549Z,74.13
2024-02-19T04:27:04.560Z,73.62
2024-02-19T04:28:04.685Z,74.78
2024-02-19T04:29:04.553Z,74.67
2024-02-19T04:30:04.596Z,75.31
2024-02-19T04:31:04.624Z,75.73
2024-02-19T04:32:04.586Z,76.60
2024-02-19T04:33:04.681Z,76.34
2024-02-19T04:34:04.742Z,76.76
2024-02-19T04:35:04.720Z,77.38
2024-02-19T04:36:05.650Z,77.39
2024-02-19T04:37:04.606Z,77.50
2024-02-19T04:38:04.642Z,76.64
2024-02-19T04:39:04.666Z,77.16
2024-02-19T04:40:04.622Z,77.11
2024-02-19T04:41:04.725Z,77.04
2024-02-19T04:42:04.590Z,77.27
2024-02-19T04:43:05.103Z,77.85
2024-02-19T04:44:04.613Z,78.82
2024-02-19T04:45:04.720Z,78.03
2024-02-19T04:46:04.741Z,78.21
2024-02-19T04:47:04.773Z,77.29
2024-02-19T04:48:04.926Z,76.65
2024-02-19T04:49:04.961Z,76.41
2024-02-19T04:50:05.009Z,77.90
2024-02-19T04:51:04.943Z,78.63
2024-02-19T04:52:05.078Z,78.23
2024-02-19T04:53:05.019Z,78.82
2024-02-19T04:54:04.940Z,79.61
2024-02-19T04:55:05.073Z,79.72
2024-02-19T04:56:04.970Z,79.56
2024-02-19T04:57:05.166Z,81.07
2024-02-19T04:58:12.911Z,80.98
2024-02-19T04:59:12.884Z,81.06
2024-02-19T05:00:12.917Z,81.13
2024-02-19T05:01:12.988Z,79.63
2024-02-19T05:02:12.937Z,78.85
2024-02-19T05:03:14.807Z,77.91
2024-02-19T05:04:12.985Z,77.18
2024-02-19T05:05:13.034Z,76.56
2024-02-19T05:06:12.882Z,76.57
2024-02-19T05:07:12.866Z,76.91
2024-02-19T05:08:12.953Z,76.97
2024-02-19T05:09:12.851Z,76.44
2024-02-19T05:10:12.910Z,76.83
2024-02-19T05:11:12.981Z,76.43
2024-02-19T05:12:12.869Z,76.31
2024-02-19T05:13:13.023Z,75.96
2024-02-19T05:14:12.941Z,77.99
2024-02-19T05:15:12.928Z,78.23
2024-02-19T05:16:12.919Z,77.16
2024-02-19T05:17:12.894Z,76.53
2024-02-19T05:18:13.058Z,76.03
2024-02-19T05:19:13.082Z,75.42
2024-02-19T05:20:12.916Z,75.15
2024-02-19T05:21:12.889Z,74.73
2024-02-19T05:22:12.960Z,74.40
2024-02-19T05:23:12.935Z,74.26
2024-02-19T05:24:12.906Z,74.06
2024-02-19T05:25:12.855Z,73.72
2024-02-19T05:26:12.989Z,73.53
2024-02-19T05:27:12.933Z,74.62
2024-02-19T05:28:13.115Z,74.49
2024-02-19T05:29:12.914Z,74.37
2024-02-19T05:30:12.982Z,74.02
2024-02-19T05:31:13.029Z,74.16
2024-02-19T05:32:13.577Z,74.09
2024-02-19T05:33:12.915Z,73.84
2024-02-19T05:34:13.138Z,74.44
2024-02-19T05:35:12.907Z,75.87
2024-02-19T05:36:12.903Z,76.44
2024-02-19T05:37:12.945Z,75.55
2024-02-19T05:38:12.898Z,75.13
2024-02-19T05:39:12.950Z,74.68
2024-02-19T05:40:13.002Z,74.37
2024-02-19T05:41:12.923Z,73.62
2024-02-19T05:42:12.901Z,75.31
2024-02-19T05:43:12.980Z,76.14
2024-02-19T05:44:12.852Z,75.90
2024-02-19T05:45:12.976Z,76.54
2024-02-19T05:46:12.952Z,77.55
2024-02-19T05:47:12.893Z,77.02
2024-02-19T05:48:12.964Z,77.66
2024-02-19T05:49:12.974Z,77.18
2024-02-19T05:50:13.095Z,77.75
2024-02-19T05:51:12.889Z,78.04
2024-02-19T05:52:12.957Z,77.35
2024-02-19T05:53:13.009Z,76.65
2024-02-19T05:54:12.899Z,76.18
2024-02-19T05:55:13.041Z,75.58
2024-02-19T05:56:13.001Z,74.89
2024-02-19T05:57:13.051Z,75.80
2024-02-19T05:58:13.228Z,76.48
2024-02-19T05:59:13.150Z,76.04
2024-02-19T06:00:13.171Z,75.47
2024-02-19T06:01:13.238Z,75.66
2024-02-19T06:02:13.351Z,75.62
2024-02-19T06:03:14.295Z,75.84
2024-02-19T06:04:13.392Z,76.25
2024-02-19T06:05:13.364Z,77.59
2024-02-19T06:06:13.377Z,77.88
2024-02-19T06:07:13.534Z,77.23
2024-02-19T06:08:13.509Z,76.42
2024-02-19T06:09:13.459Z,75.78
2024-02-19T06:10:13.609Z,75.34
2024-02-19T06:11:13.572Z,76.39
2024-02-19T06:12:13.545Z,76.77
2024-02-19T06:13:13.737Z,76.15
2024-02-19T06:14:13.673Z,78.18
2024-02-19T06:15:13.703Z,77.86
2024-02-19T06:16:13.687Z,78.35
2024-02-19T06:17:13.892Z,79.12
2024-02-19T06:18:13.923Z,78.95
2024-02-19T06:19:14.106Z,78.38
2024-02-19T06:20:13.946Z,77.61
2024-02-19T06:21:14.034Z,77.08
2024-02-19T06:22:15.565Z,76.24
2024-02-19T06:23:14.368Z,75.80
2024-02-19T06:24:14.140Z,75.38
2024-02-19T06:25:14.245Z,75.07
2024-02-19T06:26:14.307Z,74.62
2024-02-19T06:27:14.304Z,74.50
2024-02-19T06:28:14.626Z,74.03
2024-02-19T06:29:14.439Z,73.69
2024-02-19T06:30:14.535Z,73.30
2024-02-19T06:31:14.627Z,73.12
2024-02-19T06:32:14.603Z,72.87
2024-02-19T06:33:14.779Z,72.96
2024-02-19T06:34:14.842Z,72.78
2024-02-19T06:35:14.808Z,72.64
2024-02-19T06:36:14.733Z,72.44
2024-02-19T06:37:14.783Z,74.11
2024-02-19T06:38:14.811Z,74.11
2024-02-19T06:39:14.855Z,74.05
2024-02-19T06:40:14.997Z,74.27
2024-02-19T06:41:14.969Z,74.38
2024-02-19T06:42:14.992Z,74.96
2024-02-19T06:43:15.099Z,74.77
2024-02-19T06:44:15.061Z,75.43
2024-02-19T06:45:15.064Z,76.75
2024-02-19T06:46:15.103Z,76.72
2024-02-19T06:47:18.606Z,76.48
2024-02-19T06:48:15.329Z,76.65
2024-02-19T06:49:15.261Z,76.95
2024-02-19T06:50:15.275Z,76.44
2024-02-19T06:51:15.174Z,76.18
2024-02-19T06:52:15.124Z,75.71
2024-02-19T06:53:15.266Z,75.89
2024-02-19T06:54:15.140Z,75.43
2024-02-19T06:55:15.413Z,74.59
2024-02-19T06:56:17.047Z,74.93
2024-02-19T06:57:15.130Z,75.25
2024-02-19T06:58:16.391Z,75.75
2024-02-19T06:59:15.381Z,75.21
2024-02-19T07:00:15.199Z,74.81
2024-02-19T07:01:15.308Z,74.79
2024-02-19T07:02:15.253Z,74.55
2024-02-19T07:03:15.301Z,75.65
2024-02-19T07:04:15.348Z,76.67
2024-02-19T07:05:15.587Z,77.46
2024-02-19T07:06:15.373Z,77.84
2024-02-19T07:07:15.428Z,77.81
2024-02-19T07:08:15.597Z,77.91
2024-02-19T07:09:15.407Z,78.54
2024-02-19T07:10:15.485Z,78.82
2024-02-19T07:11:15.637Z,77.93
2024-02-19T07:12:15.571Z,77.56
2024-02-19T07:13:15.738Z,77.57
2024-02-19T07:14:15.658Z,77.28
2024-02-19T07:15:15.660Z,76.36
2024-02-19T07:16:15.911Z,76.13
2024-02-19T07:17:15.813Z,76.13
2024-02-19T07:18:15.986Z,75.95
2024-02-19T07:19:16.050Z,76.41
2024-02-19T07:20:16.185Z,77.01
2024-02-19T07:21:16.000Z,75.81
2024-02-19T07:22:16.092Z,75.85
2024-02-19T07:23:16.099Z,76.78
2024-02-19T07:24:16.158Z,77.80
2024-02-19T07:26:16.311Z,79.18
2024-02-19T07:27:16.354Z,80.73
2024-02-19T07:28:16.335Z,80.51
2024-02-19T07:29:16.259Z,80.62
2024-02-19T07:30:16.359Z,79.56
2024-02-19T07:31:16.425Z,80.16
2024-02-19T07:32:16.492Z,78.92
2024-02-19T07:33:16.621Z,79.30
2024-02-19T07:34:16.521Z,79.04
2024-02-19T07:35:16.519Z,78.66
2024-02-19T07:36:16.489Z,79.20
2024-02-19T07:37:16.628Z,78.80
2024-02-19T07:38:16.668Z,78.71
2024-02-19T07:39:16.604Z,79.17
2024-02-19T07:40:16.652Z,78.55
2024-02-19T07:41:16.626Z,78.71
2024-02-19T07:42:16.657Z,78.52
2024-02-19T07:43:16.714Z,79.41
2024-02-19T07:44:16.773Z,80.63
2024-02-19T07:45:18.175Z,80.20
2024-02-19T07:46:18.045Z,79.60
2024-02-19T07:47:18.478Z,79.32
2024-02-19T07:48:18.492Z,79.07
2024-02-19T07:49:17.627Z,78.59
2024-02-19T07:50:17.324Z,78.78
2024-02-19T07:51:17.636Z,78.39
2024-02-19T07:52:17.447Z,80.40
2024-02-19T07:53:18.233Z,80.02
2024-02-19T07:54:17.551Z,79.81
2024-02-19T07:55:17.388Z,80.09
2024-02-19T07:56:17.397Z,79.55
2024-02-19T07:57:17.470Z,78.38
2024-02-19T07:58:17.598Z,78.37
2024-02-19T07:59:17.486Z,77.62
2024-02-19T08:00:17.596Z,77.32
2024-02-19T08:01:17.731Z,76.86
2024-02-19T08:02:17.769Z,76.28
2024-02-19T08:03:17.712Z,76.60
2024-02-19T08:04:17.799Z,76.79
2024-02-19T08:05:18.044Z,77.30
2024-02-19T08:06:17.770Z,78.04
2024-02-19T08:07:17.919Z,78.38
2024-02-19T08:08:17.985Z,77.93
2024-02-19T08:09:19.507Z,77.79
2024-02-19T08:10:17.902Z,77.53
2024-02-19T08:11:17.908Z,78.48
2024-02-19T08:12:18.249Z,79.01
2024-02-19T08:13:18.982Z,78.64
2024-02-19T08:14:18.170Z,77.79
2024-02-19T08:15:18.141Z,77.24
2024-02-19T08:16:18.445Z,77.02
2024-02-19T08:17:18.224Z,78.94
2024-02-19T08:18:18.432Z,79.23
2024-02-19T08:19:18.548Z,78.71
2024-02-19T08:20:18.354Z,79.06
2024-02-19T08:21:18.353Z,79.72
2024-02-19T08:22:20.625Z,79.87
2024-02-19T08:23:36.329Z,80.48
2024-02-19T08:24:19.401Z,80.61
2024-02-19T08:25:18.552Z,80.29
2024-02-19T08:26:18.948Z,79.95
2024-02-19T08:27:18.531Z,80.02
2024-02-19T08:28:18.600Z,79.65
2024-02-19T08:29:18.614Z,79.49
2024-02-19T08:30:18.528Z,80.48
2024-02-19T08:31:18.604Z,80.34
2024-02-19T08:32:18.526Z,80.97
2024-02-19T08:33:18.530Z,80.50
2024-02-19T08:34:18.602Z,80.32
2024-02-19T08:35:18.584Z,80.36
2024-02-19T08:36:18.494Z,80.23
2024-02-19T08:37:18.796Z,79.75
2024-02-19T08:38:18.562Z,80.62
2024-02-19T08:39:18.539Z,80.57
2024-02-19T08:40:18.772Z,80.53
2024-02-19T08:42:30.774Z,81.33
2024-02-19T08:43:32.858Z,81.26
2024-02-19T08:44:32.129Z,81.60
2024-02-19T08:45:34.318Z,81.38
2024-02-19T08:46:29.730Z,80.83
2024-02-19T08:47:28.059Z,80.77
2024-02-19T08:48:28.516Z,80.58
2024-02-19T08:49:28.064Z,80.09
2024-02-19T08:50:27.996Z,79.76
2024-02-19T08:51:27.995Z,80.71
2024-02-19T08:52:28.155Z,81.02
2024-02-19T08:53:27.992Z,80.29
2024-02-19T08:54:27.978Z,80.51
2024-02-19T08:55:28.139Z,81.06
2024-02-19T08:56:28.002Z,81.72
2024-02-19T08:57:27.923Z,81.85
2024-02-19T08:58:28.097Z,81.98
2024-02-19T08:59:27.968Z,81.94
2024-02-19T09:00:30.247Z,81.50
2024-02-19T09:01:28.106Z,80.71
2024-02-19T09:02:28.032Z,79.70
2024-02-19T09:03:28.110Z,79.72
2024-02-19T09:04:28.097Z,79.80
2024-02-19T09:05:27.965Z,79.45
2024-02-19T09:06:28.007Z,78.82
2024-02-19T09:07:28.020Z,78.23
2024-02-19T09:08:28.006Z,77.60
2024-02-19T09:09:28.018Z,77.09
2024-02-19T09:10:27.989Z,76.63
2024-02-19T09:11:28.122Z,76.35
2024-02-19T09:12:27.967Z,76.08
2024-02-19T09:13:28.097Z,75.72
2024-02-19T09:14:27.990Z,75.33
2024-02-19T09:15:28.030Z,74.51
2024-02-19T09:16:28.871Z,75.19
2024-02-19T09:17:28.730Z,74.93
2024-02-19T09:18:28.701Z,75.44
2024-02-19T09:19:28.088Z,74.44
2024-02-19T09:20:28.231Z,73.89
2024-02-19T09:21:27.923Z,73.71
2024-02-19T09:22:28.070Z,75.21
2024-02-19T09:23:30.912Z,75.70
2024-02-19T09:24:28.033Z,75.43
2024-02-19T09:25:28.227Z,74.70
2024-02-19T09:26:28.000Z,73.94
2024-02-19T09:27:28.059Z,73.99
2024-02-19T09:28:28.067Z,73.11
2024-02-19T09:29:27.994Z,71.44
2024-02-19T09:30:28.016Z,70.97
2024-02-19T09:31:28.088Z,70.61
2024-02-19T09:32:28.011Z,70.60
2024-02-19T09:33:28.666Z,69.01
2024-02-19T09:34:28.080Z,71.90
2024-02-19T09:35:29.052Z,72.67
2024-02-19T09:36:28.326Z,71.88
2024-02-19T09:37:28.897Z,70.39
2024-02-19T09:38:28.484Z,69.64
2024-02-19T09:39:28.032Z,70.15
2024-02-19T09:40:28.082Z,69.96
2024-02-19T09:41:28.069Z,69.30
2024-02-19T09:42:28.159Z,68.62
2024-02-19T09:43:28.411Z,68.80
2024-02-19T09:44:28.296Z,68.86
2024-02-19T09:45:29.023Z,69.63
2024-02-19T09:46:28.966Z,69.36
2024-02-19T09:47:28.781Z,69.90
2024-02-19T09:48:28.931Z,69.49
2024-02-19T09:49:28.907Z,69.61
2024-02-19T09:50:28.964Z,69.63
2024-02-19T09:51:36.540Z,68.90
2024-02-19T09:52:30.610Z,68.88
2024-02-19T09:53:28.804Z,68.00
2024-02-19T09:54:28.707Z,69.41
2024-02-19T09:55:28.855Z,69.43
2024-02-19T09:56:28.766Z,68.50
2024-02-19T09:57:28.758Z,69.49
2024-02-19T09:58:28.912Z,68.26
2024-02-19T09:59:28.898Z,69.21
2024-02-19T10:00:28.915Z,69.60
2024-02-19T10:01:29.052Z,65.92
2024-02-19T10:02:29.066Z,67.17
2024-02-19T10:03:29.082Z,65.75
2024-02-19T10:04:29.215Z,66.63
2024-02-19T10:05:29.312Z,66.55
2024-02-19T10:06:29.799Z,66.60
2024-02-19T10:07:29.179Z,66.92
2024-02-19T10:08:29.247Z,66.33
2024-02-19T10:09:29.374Z,64.54
2024-02-19T10:10:29.341Z,67.14
2024-02-19T10:11:29.312Z,66.61
2024-02-19T10:12:29.286Z,68.59
2024-02-19T10:13:29.640Z,66.30
2024-02-19T10:14:29.736Z,65.09
2024-02-19T10:15:29.431Z,66.06
2024-02-19T10:16:29.637Z,66.07
2024-02-19T10:17:29.564Z,66.26
2024-02-19T10:18:29.763Z,65.06
2024-02-19T10:19:29.625Z,64.95
2024-02-19T10:20:29.685Z,62.92
2024-02-19T10:21:29.642Z,62.26
2024-02-19T10:22:29.642Z,62.36
2024-02-19T10:23:29.672Z,61.30
2024-02-19T10:24:29.672Z,59.73
2024-02-19T10:25:29.683Z,59.13
2024-02-19T10:26:29.953Z,58.63
2024-02-19T10:27:29.842Z,58.27
2024-02-19T10:28:30.049Z,59.04
2024-02-19T10:29:30.104Z,57.72
2024-02-19T10:30:30.105Z,59.57
2024-02-19T10:31:30.111Z,56.72
2024-02-19T10:32:30.098Z,58.49
2024-02-19T10:33:30.206Z,57.46
2024-02-19T10:34:30.152Z,56.83
2024-02-19T10:35:30.223Z,57.11
2024-02-19T10:36:30.148Z,54.93
2024-02-19T10:37:30.215Z,54.15
2024-02-19T10:38:30.329Z,53.89
2024-02-19T10:39:30.327Z,53.20
2024-02-19T10:40:34.522Z,53.51
2024-02-19T10:41:30.517Z,52.47
2024-02-19T10:42:31.129Z,55.63
2024-02-19T10:43:30.514Z,53.98
2024-02-19T10:44:30.313Z,53.33
2024-02-19T10:45:30.309Z,55.53
2024-02-19T10:46:30.990Z,53.46
2024-02-19T10:47:30.376Z,54.94
2024-02-19T10:48:30.446Z,54.09
2024-02-19T10:49:30.419Z,52.58
2024-02-19T10:50:30.535Z,51.32
2024-02-19T10:51:30.393Z,53.25
2024-02-19T10:52:30.569Z,52.77
2024-02-19T10:53:30.350Z,50.36
2024-02-19T10:54:30.355Z,51.61
2024-02-19T10:55:40.953Z,51.12
2024-02-19T10:56:31.328Z,53.05
2024-02-19T10:57:30.325Z,54.70
2024-02-19T10:58:30.514Z,51.75
2024-02-19T10:59:30.322Z,52.50
2024-02-19T11:00:30.410Z,51.36
2024-02-19T11:01:30.393Z,50.28
2024-02-19T11:02:30.387Z,50.11
2024-02-19T11:03:30.397Z,50.44
2024-02-19T11:04:30.411Z,50.97
2024-02-19T11:05:30.542Z,47.74
2024-02-19T11:06:31.845Z,47.65
2024-02-19T11:07:30.452Z,51.66
2024-02-19T11:08:30.368Z,50.29
2024-02-19T11:09:30.976Z,49.58
2024-02-19T11:10:30.496Z,50.90
2024-02-19T11:11:30.468Z,52.58
2024-02-19T11:12:30.431Z,53.40
2024-02-19T11:13:30.645Z,55.24
2024-02-19T11:14:30.436Z,53.71
2024-02-19T11:15:30.410Z,55.02
2024-02-19T11:16:30.485Z,54.36
2024-02-19T11:17:30.430Z,54.61
2024-02-19T11:18:30.552Z,56.25
2024-02-19T11:19:30.571Z,56.59
2024-02-19T11:20:30.404Z,53.24
2024-02-19T11:21:30.454Z,52.87
2024-02-19T11:22:30.391Z,51.55
2024-02-19T11:23:30.627Z,53.21
2024-02-19T11:24:30.408Z,53.01
2024-02-19T11:25:30.639Z,55.53
2024-02-19T11:26:30.402Z,56.93
2024-02-19T11:27:30.458Z,56.75
2024-02-19T11:28:30.474Z,56.11
2024-02-19T11:29:39.808Z,55.40
2024-02-19T11:30:31.434Z,53.42
2024-02-19T11:31:30.499Z,52.93
2024-02-19T11:32:30.560Z,54.26
2024-02-19T11:33:30.561Z,52.64
2024-02-19T11:34:30.672Z,53.50
2024-02-19T11:35:32.731Z,51.54
2024-02-19T11:36:30.477Z,52.13
2024-02-19T11:37:30.830Z,53.13
2024-02-19T11:38:31.688Z,51.90
2024-02-19T11:39:31.515Z,51.95
2024-02-19T11:40:33.616Z,52.80
2024-02-19T11:41:30.514Z,54.11
2024-02-19T11:42:30.612Z,53.21
2024-02-19T11:43:30.631Z,51.96
2024-02-19T11:44:30.646Z,52.67
2024-02-19T11:45:30.434Z,51.86
2024-02-19T11:46:30.519Z,51.51
2024-02-19T11:47:30.558Z,53.11
2024-02-19T11:48:30.521Z,53.36
2024-02-19T11:49:30.708Z,53.67
2024-02-19T11:50:30.682Z,52.59
2024-02-19T11:51:30.461Z,52.35
2024-02-19T11:52:31.374Z,53.55
2024-02-19T11:53:30.615Z,52.69
2024-02-19T11:54:30.501Z,52.89
2024-02-19T11:55:30.874Z,53.63
2024-02-19T11:56:30.570Z,52.46
2024-02-19T11:57:30.644Z,53.48
2024-02-19T11:58:30.737Z,52.50
2024-02-19T11:59:30.619Z,54.98
2024-02-19T12:00:30.500Z,55.21
2024-02-19T12:01:30.502Z,55.40
2024-02-19T12:02:30.522Z,54.40
2024-02-19T12:03:30.498Z,54.86
2024-02-19T12:04:30.646Z,52.41
2024-02-19T12:05:30.593Z,52.31
2024-02-19T12:06:31.204Z,50.16
2024-02-19T12:07:33.168Z,51.07
2024-02-19T12:08:30.603Z,51.38
2024-02-19T12:09:30.635Z,52.04
2024-02-19T12:10:31.041Z,51.93
2024-02-19T12:11:32.227Z,52.26
2024-02-19T12:12:30.510Z,52.85
2024-02-19T12:13:30.759Z,53.23
2024-02-19T12:14:30.716Z,53.26
2024-02-19T12:15:30.761Z,53.10
2024-02-19T12:16:30.615Z,53.10
2024-02-19T12:17:33.249Z,53.50
2024-02-19T12:18:30.667Z,52.69
2024-02-19T12:19:30.774Z,54.15
2024-02-19T12:20:30.551Z,55.43
2024-02-19T12:21:30.672Z,56.58
2024-02-19T12:22:30.538Z,54.13
2024-02-19T12:23:30.574Z,53.31
2024-02-19T12:24:30.625Z,53.56
2024-02-19T12:25:30.707Z,54.76
2024-02-19T12:26:30.729Z,54.41
2024-02-19T12:27:30.715Z,55.17
2024-02-19T12:28:30.667Z,53.89
2024-02-19T12:29:30.737Z,52.45
2024-02-19T12:30:30.546Z,52.37
2024-02-19T12:31:30.534Z,52.98
2024-02-19T12:32:30.552Z,52.15
2024-02-19T12:33:35.277Z,54.79
2024-02-19T12:53:39.895Z,57.84
2024-02-19T12:54:39.485Z,59.06
2024-02-19T12:55:39.556Z,59.01
2024-02-19T12:56:40.160Z,59.52
2024-02-19T12:57:39.425Z,60.57
2024-02-19T12:58:39.451Z,59.85
2024-02-19T12:59:39.476Z,59.62
2024-02-19T13:00:39.414Z,59.08
2024-02-19T13:01:39.490Z,59.08
2024-02-19T13:02:39.465Z,59.56
2024-02-19T13:03:39.482Z,60.24
2024-02-19T13:04:39.652Z,59.98
2024-02-19T13:05:39.552Z,60.75
2024-02-19T13:06:39.549Z,61.15
2024-02-19T13:07:39.595Z,61.74
2024-02-19T13:08:39.543Z,61.84
2024-02-19T13:09:39.459Z,61.72
2024-02-19T13:10:39.568Z,60.95
2024-02-19T13:11:39.492Z,60.06
2024-02-19T13:12:40.219Z,61.18
2024-02-19T13:13:40.337Z,60.55
2024-02-19T13:14:39.907Z,58.89